sensor_id;sensor_type;location;lat;lon;timestamp;temperature;humidity
19868;DHT22;10096;51.112;6.776;2023-03-01T00:02:02;0.80;99.90
19868;DHT22;10096;51.112;6.776;2023-03-01T00:04:30;0.60;99.90
19868;DHT22;10096;51.112;6.776;2023-03-01T00:07:01;0.80;99.90
19868;DHT22;10096;51.112;6.776;2023-03-01T00:09:28;0.70;99.90
19868;DHT22;10096;51.112;6.776;2023-03-01T00:12:05;0.60;99.90
19868;DHT22;10096;51.112;6.776;2023-03-01T00:14:32;0.80;99.90
19868;DHT22;10096;51.112;6.776;2023-03-01T00:16:59;0.80;99.90
19868;DHT22;10096;51.112;6.776;2023-03-01T00:19:27;0.80;99.90
19868;DHT22;10096;51.112;6.776;2023-03-01T00:21:54;0.80;99.90
19868;DHT22;10096;51.112;6.776;2023-03-01T00:24:21;0.80;99.90
19868;DHT22;10096;51.112;6.776;2023-03-01T00:26:48;0.80;99.90
19868;DHT22;10096;51.112;6.776;2023-03-01T00:29:17;0.80;99.90
19868;DHT22;10096;51.112;6.776;2023-03-01T00:31:44;0.80;99.90
19868;DHT22;10096;51.112;6.776;2023-03-01T00:34:11;0.70;99.90
19868;DHT22;10096;51.112;6.776;2023-03-01T00:36:38;0.60;99.90
19868;DHT22;10096;51.112;6.776;2023-03-01T00:39:07;0.60;99.90
19868;DHT22;10096;51.112;6.776;2023-03-01T00:41:36;0.60;99.90
19868;DHT22;10096;51.112;6.776;2023-03-01T00:44:03;0.60;99.90
19868;DHT22;10096;51.112;6.776;2023-03-01T00:46:31;0.60;99.90
19868;DHT22;10096;51.112;6.776;2023-03-01T00:48:59;0.60;99.90
19868;DHT22;10096;51.112;6.776;2023-03-01T00:51:28;0.60;99.90
19868;DHT22;10096;51.112;6.776;2023-03-01T00:53:56;0.60;99.90
19868;DHT22;10096;51.112;6.776;2023-03-01T00:56:24;0.60;99.90
19868;DHT22;10096;51.112;6.776;2023-03-01T00:58:51;0.60;99.90
19868;DHT22;10096;51.112;6.776;2023-03-01T01:01:24;0.50;99.90
19868;DHT22;10096;51.112;6.776;2023-03-01T01:03:55;0.70;99.90
19868;DHT22;10096;51.112;6.776;2023-03-01T01:06:25;0.50;99.90
19868;DHT22;10096;51.112;6.776;2023-03-01T01:08:54;0.50;99.90
19868;DHT22;10096;51.112;6.776;2023-03-01T01:11:22;0.50;99.90
19868;DHT22;10096;51.112;6.776;2023-03-01T01:13:50;0.50;99.90
19868;DHT22;10096;51.112;6.776;2023-03-01T01:16:18;0.50;99.90
19868;DHT22;10096;51.112;6.776;2023-03-01T01:19:03;0.50;99.90
19868;DHT22;10096;51.112;6.776;2023-03-01T01:21:31;0.30;99.90
19868;DHT22;10096;51.112;6.776;2023-03-01T01:23:58;0.20;99.90
19868;DHT22;10096;51.112;6.776;2023-03-01T01:26:26;0.10;1.00
19868;DHT22;10096;51.112;6.776;2023-03-01T01:28:54;0.10;1.00
19868;DHT22;10096;51.112;6.776;2023-03-01T01:31:23;0.10;1.00
19868;DHT22;10096;51.112;6.776;2023-03-01T01:33:51;0.10;1.00
19868;DHT22;10096;51.112;6.776;2023-03-01T01:36:20;0.20;1.00
19868;DHT22;10096;51.112;6.776;2023-03-01T01:38:47;0.10;1.00
19868;DHT22;10096;51.112;6.776;2023-03-01T01:41:35;0.10;1.00
19868;DHT22;10096;51.112;6.776;2023-03-01T01:44:14;0.30;1.00
19868;DHT22;10096;51.112;6.776;2023-03-01T01:46:43;0.20;1.00
19868;DHT22;10096;51.112;6.776;2023-03-01T01:49:29;0.20;1.00
19868;DHT22;10096;51.112;6.776;2023-03-01T01:52:05;0.30;1.00
19868;DHT22;10096;51.112;6.776;2023-03-01T01:54:40;0.30;1.00
19868;DHT22;10096;51.112;6.776;2023-03-01T01:57:13;0.30;1.00
19868;DHT22;10096;51.112;6.776;2023-03-01T01:59:45;0.30;1.00
19868;DHT22;10096;51.112;6.776;2023-03-01T02:02:13;0.20;1.00
19868;DHT22;10096;51.112;6.776;2023-03-01T02:04:41;0.20;1.00
19868;DHT22;10096;51.112;6.776;2023-03-01T02:07:14;0.20;1.00
19868;DHT22;10096;51.112;6.776;2023-03-01T02:09:42;0.20;1.00
19868;DHT22;10096;51.112;6.776;2023-03-01T02:12:15;0.10;1.00
19868;DHT22;10096;51.112;6.776;2023-03-01T02:14:45;0.30;1.00
19868;DHT22;10096;51.112;6.776;2023-03-01T02:17:15;-0.10;1.00
19868;DHT22;10096;51.112;6.776;2023-03-01T02:19:54;0.00;1.00
19868;DHT22;10096;51.112;6.776;2023-03-01T02:22:35;0.30;1.00
19868;DHT22;10096;51.112;6.776;2023-03-01T02:25:12;0.00;1.00
19868;DHT22;10096;51.112;6.776;2023-03-01T02:27:49;0.10;1.00
19868;DHT22;10096;51.112;6.776;2023-03-01T02:30:21;0.00;1.00
19868;DHT22;10096;51.112;6.776;2023-03-01T02:32:50;0.00;1.00
19868;DHT22;10096;51.112;6.776;2023-03-01T02:35:17;0.00;1.00
19868;DHT22;10096;51.112;6.776;2023-03-01T02:37:46;0.10;1.00
19868;DHT22;10096;51.112;6.776;2023-03-01T02:42:50;0.10;1.00
19868;DHT22;10096;51.112;6.776;2023-03-01T02:45:17;0.20;1.00
19868;DHT22;10096;51.112;6.776;2023-03-01T02:47:46;0.10;1.00
19868;DHT22;10096;51.112;6.776;2023-03-01T02:50:25;0.10;1.00
19868;DHT22;10096;51.112;6.776;2023-03-01T02:52:57;0.10;1.00
19868;DHT22;10096;51.112;6.776;2023-03-01T02:55:27;0.10;1.00
19868;DHT22;10096;51.112;6.776;2023-03-01T02:57:56;0.10;1.00
19868;DHT22;10096;51.112;6.776;2023-03-01T03:00:26;0.00;1.00
19868;DHT22;10096;51.112;6.776;2023-03-01T03:02:56;0.00;1.00
19868;DHT22;10096;51.112;6.776;2023-03-01T03:05:25;0.00;1.00
19868;DHT22;10096;51.112;6.776;2023-03-01T03:07:55;0.00;1.00
19868;DHT22;10096;51.112;6.776;2023-03-01T03:10:25;0.00;1.00
19868;DHT22;10096;51.112;6.776;2023-03-01T03:12:56;0.20;1.00
19868;DHT22;10096;51.112;6.776;2023-03-01T03:15:24;0.10;1.00
19868;DHT22;10096;51.112;6.776;2023-03-01T03:17:52;0.00;1.00
19868;DHT22;10096;51.112;6.776;2023-03-01T03:20:23;0.00;1.00
19868;DHT22;10096;51.112;6.776;2023-03-01T03:22:52;0.00;1.00
19868;DHT22;10096;51.112;6.776;2023-03-01T03:25:20;0.10;1.00
19868;DHT22;10096;51.112;6.776;2023-03-01T03:27:49;0.10;1.00
19868;DHT22;10096;51.112;6.776;2023-03-01T03:30:24;-0.20;1.00
19868;DHT22;10096;51.112;6.776;2023-03-01T03:32:51;0.00;1.00
19868;DHT22;10096;51.112;6.776;2023-03-01T03:35:21;-0.10;1.00
19868;DHT22;10096;51.112;6.776;2023-03-01T03:38:00;0.00;1.00
19868;DHT22;10096;51.112;6.776;2023-03-01T03:40:33;0.00;1.00
19868;DHT22;10096;51.112;6.776;2023-03-01T03:43:00;-0.10;1.00
19868;DHT22;10096;51.112;6.776;2023-03-01T03:45:29;0.00;1.00
19868;DHT22;10096;51.112;6.776;2023-03-01T03:47:59;-0.10;1.00
19868;DHT22;10096;51.112;6.776;2023-03-01T03:50:28;0.10;1.00
19868;DHT22;10096;51.112;6.776;2023-03-01T03:52:55;-0.20;1.00
19868;DHT22;10096;51.112;6.776;2023-03-01T03:55:22;0.00;1.00
19868;DHT22;10096;51.112;6.776;2023-03-01T03:57:53;-0.30;1.00
19868;DHT22;10096;51.112;6.776;2023-03-01T04:00:21;-0.20;1.00
19868;DHT22;10096;51.112;6.776;2023-03-01T04:02:50;-0.20;1.00
19868;DHT22;10096;51.112;6.776;2023-03-01T04:05:18;-0.30;1.00
19868;DHT22;10096;51.112;6.776;2023-03-01T04:07:46;-0.30;1.00
19868;DHT22;10096;51.112;6.776;2023-03-01T04:10:15;-0.30;1.00
19868;DHT22;10096;51.112;6.776;2023-03-01T04:12:42;-0.40;1.00
19868;DHT22;10096;51.112;6.776;2023-03-01T04:15:11;-0.40;1.00
19868;DHT22;10096;51.112;6.776;2023-03-01T04:17:43;-0.40;1.00
19868;DHT22;10096;51.112;6.776;2023-03-01T04:20:16;-0.40;1.00
19868;DHT22;10096;51.112;6.776;2023-03-01T04:22:45;-0.40;1.00
19868;DHT22;10096;51.112;6.776;2023-03-01T04:25:16;-0.40;1.00
19868;DHT22;10096;51.112;6.776;2023-03-01T04:27:42;-0.40;1.00
19868;DHT22;10096;51.112;6.776;2023-03-01T04:30:10;-0.40;1.00
19868;DHT22;10096;51.112;6.776;2023-03-01T04:32:37;-0.40;1.00
19868;DHT22;10096;51.112;6.776;2023-03-01T04:35:07;-0.50;1.00
19868;DHT22;10096;51.112;6.776;2023-03-01T04:37:35;-0.50;1.00
19868;DHT22;10096;51.112;6.776;2023-03-01T04:40:05;-0.50;1.00
19868;DHT22;10096;51.112;6.776;2023-03-01T04:42:41;-0.50;1.00
19868;DHT22;10096;51.112;6.776;2023-03-01T04:45:10;-0.50;1.00
19868;DHT22;10096;51.112;6.776;2023-03-01T04:47:40;-0.40;1.00
19868;DHT22;10096;51.112;6.776;2023-03-01T04:50:09;-0.50;1.00
19868;DHT22;10096;51.112;6.776;2023-03-01T04:52:37;-0.50;1.00
19868;DHT22;10096;51.112;6.776;2023-03-01T04:55:07;-0.50;1.00
19868;DHT22;10096;51.112;6.776;2023-03-01T04:57:38;-0.50;1.00
19868;DHT22;10096;51.112;6.776;2023-03-01T05:00:07;-0.50;1.00
19868;DHT22;10096;51.112;6.776;2023-03-01T05:02:46;-0.50;1.00
19868;DHT22;10096;51.112;6.776;2023-03-01T05:05:14;-0.50;1.00
19868;DHT22;10096;51.112;6.776;2023-03-01T05:07:41;-0.40;1.00
19868;DHT22;10096;51.112;6.776;2023-03-01T05:10:11;-0.50;1.00
19868;DHT22;10096;51.112;6.776;2023-03-01T05:12:38;-0.50;1.00
19868;DHT22;10096;51.112;6.776;2023-03-01T05:15:06;-0.50;1.00
19868;DHT22;10096;51.112;6.776;2023-03-01T05:17:33;-0.50;1.00
19868;DHT22;10096;51.112;6.776;2023-03-01T05:20:00;-0.30;1.00
19868;DHT22;10096;51.112;6.776;2023-03-01T05:22:31;-0.50;1.00
19868;DHT22;10096;51.112;6.776;2023-03-01T05:25:01;-0.50;1.00
19868;DHT22;10096;51.112;6.776;2023-03-01T05:27:29;-0.50;1.00
19868;DHT22;10096;51.112;6.776;2023-03-01T05:29:56;-0.60;1.00
19868;DHT22;10096;51.112;6.776;2023-03-01T05:32:23;-0.50;1.00
19868;DHT22;10096;51.112;6.776;2023-03-01T05:34:50;-0.50;1.00
19868;DHT22;10096;51.112;6.776;2023-03-01T05:37:19;-0.60;1.00
19868;DHT22;10096;51.112;6.776;2023-03-01T05:39:46;-0.50;1.00
19868;DHT22;10096;51.112;6.776;2023-03-01T05:42:15;-0.50;1.00
19868;DHT22;10096;51.112;6.776;2023-03-01T05:44:44;-0.50;1.00
19868;DHT22;10096;51.112;6.776;2023-03-01T05:47:11;-0.50;1.00
19868;DHT22;10096;51.112;6.776;2023-03-01T05:49:38;-0.30;1.00
19868;DHT22;10096;51.112;6.776;2023-03-01T05:52:05;-0.50;1.00
19868;DHT22;10096;51.112;6.776;2023-03-01T05:54:32;-0.50;1.00
19868;DHT22;10096;51.112;6.776;2023-03-01T05:56:59;-0.50;1.00
19868;DHT22;10096;51.112;6.776;2023-03-01T05:59:27;-0.40;1.00
19868;DHT22;10096;51.112;6.776;2023-03-01T06:01:55;-0.30;1.00
19868;DHT22;10096;51.112;6.776;2023-03-01T06:04:22;-0.50;1.00
19868;DHT22;10096;51.112;6.776;2023-03-01T06:06:49;-0.50;1.00
19868;DHT22;10096;51.112;6.776;2023-03-01T06:09:16;-0.50;1.00
19868;DHT22;10096;51.112;6.776;2023-03-01T06:11:43;-0.50;1.00
19868;DHT22;10096;51.112;6.776;2023-03-01T06:14:10;-0.40;1.00
19868;DHT22;10096;51.112;6.776;2023-03-01T06:16:40;-0.50;1.00
19868;DHT22;10096;51.112;6.776;2023-03-01T06:19:08;-0.50;1.00
19868;DHT22;10096;51.112;6.776;2023-03-01T06:21:35;-0.50;1.00
19868;DHT22;10096;51.112;6.776;2023-03-01T06:24:02;-0.40;1.00
19868;DHT22;10096;51.112;6.776;2023-03-01T06:26:31;-0.30;1.00
19868;DHT22;10096;51.112;6.776;2023-03-01T06:28:58;-0.10;1.00
19868;DHT22;10096;51.112;6.776;2023-03-01T06:31:27;0.10;1.00
19868;DHT22;10096;51.112;6.776;2023-03-01T06:33:56;0.10;1.00
19868;DHT22;10096;51.112;6.776;2023-03-01T06:36:24;0.00;1.00
19868;DHT22;10096;51.112;6.776;2023-03-01T06:38:51;0.20;1.00
19868;DHT22;10096;51.112;6.776;2023-03-01T06:41:19;0.40;1.00
19868;DHT22;10096;51.112;6.776;2023-03-01T06:43:46;0.50;1.00
19868;DHT22;10096;51.112;6.776;2023-03-01T06:46:12;0.60;99.90
19868;DHT22;10096;51.112;6.776;2023-03-01T06:48:39;0.70;99.90
19868;DHT22;10096;51.112;6.776;2023-03-01T06:51:06;1.10;99.90
19868;DHT22;10096;51.112;6.776;2023-03-01T06:53:34;1.40;99.90
19868;DHT22;10096;51.112;6.776;2023-03-01T06:56:02;1.70;99.90
19868;DHT22;10096;51.112;6.776;2023-03-01T06:58:29;1.90;99.90
19868;DHT22;10096;51.112;6.776;2023-03-01T07:01:10;2.10;99.90
19868;DHT22;10096;51.112;6.776;2023-03-01T07:03:37;2.50;99.90
19868;DHT22;10096;51.112;6.776;2023-03-01T07:06:17;2.80;99.90
19868;DHT22;10096;51.112;6.776;2023-03-01T07:08:45;3.20;99.90
19868;DHT22;10096;51.112;6.776;2023-03-01T07:11:12;3.10;99.90
19868;DHT22;10096;51.112;6.776;2023-03-01T07:13:39;3.90;99.90
19868;DHT22;10096;51.112;6.776;2023-03-01T07:16:07;4.80;99.90
19868;DHT22;10096;51.112;6.776;2023-03-01T07:18:34;5.90;99.90
19868;DHT22;10096;51.112;6.776;2023-03-01T07:21:04;6.40;99.90
19868;DHT22;10096;51.112;6.776;2023-03-01T07:23:32;7.20;99.90
19868;DHT22;10096;51.112;6.776;2023-03-01T07:26:00;7.60;99.90
19868;DHT22;10096;51.112;6.776;2023-03-01T07:28:27;8.00;99.90
19868;DHT22;10096;51.112;6.776;2023-03-01T07:30:54;8.40;99.90
19868;DHT22;10096;51.112;6.776;2023-03-01T07:33:22;8.70;99.90
19868;DHT22;10096;51.112;6.776;2023-03-01T07:35:58;9.10;99.90
19868;DHT22;10096;51.112;6.776;2023-03-01T07:38:25;9.30;99.90
19868;DHT22;10096;51.112;6.776;2023-03-01T07:40:53;9.60;99.90
19868;DHT22;10096;51.112;6.776;2023-03-01T07:43:21;9.70;99.90
19868;DHT22;10096;51.112;6.776;2023-03-01T07:45:48;9.90;99.90
19868;DHT22;10096;51.112;6.776;2023-03-01T07:48:15;10.30;99.90
19868;DHT22;10096;51.112;6.776;2023-03-01T07:50:42;10.30;99.90
19868;DHT22;10096;51.112;6.776;2023-03-01T07:53:09;10.20;99.90
19868;DHT22;10096;51.112;6.776;2023-03-01T07:55:36;10.70;99.90
19868;DHT22;10096;51.112;6.776;2023-03-01T07:58:03;10.50;99.90
19868;DHT22;10096;51.112;6.776;2023-03-01T08:00:32;10.40;99.90
19868;DHT22;10096;51.112;6.776;2023-03-01T08:02:59;10.80;99.90
19868;DHT22;10096;51.112;6.776;2023-03-01T08:05:27;10.80;99.90
19868;DHT22;10096;51.112;6.776;2023-03-01T08:07:54;10.70;99.90
19868;DHT22;10096;51.112;6.776;2023-03-01T08:10:21;10.80;99.90
19868;DHT22;10096;51.112;6.776;2023-03-01T08:12:51;11.00;99.90
19868;DHT22;10096;51.112;6.776;2023-03-01T08:15:18;11.10;99.90
19868;DHT22;10096;51.112;6.776;2023-03-01T08:17:48;11.20;99.90
19868;DHT22;10096;51.112;6.776;2023-03-01T08:20:16;11.20;99.90
19868;DHT22;10096;51.112;6.776;2023-03-01T08:22:43;11.10;99.90
19868;DHT22;10096;51.112;6.776;2023-03-01T08:25:13;11.20;99.90
19868;DHT22;10096;51.112;6.776;2023-03-01T08:27:40;11.10;99.90
19868;DHT22;10096;51.112;6.776;2023-03-01T08:30:09;10.50;99.90
19868;DHT22;10096;51.112;6.776;2023-03-01T08:32:37;9.70;99.90
19868;DHT22;10096;51.112;6.776;2023-03-01T08:35:09;9.00;99.90
19868;DHT22;10096;51.112;6.776;2023-03-01T08:37:36;7.70;99.90
19868;DHT22;10096;51.112;6.776;2023-03-01T08:40:04;7.00;99.90
19868;DHT22;10096;51.112;6.776;2023-03-01T08:42:34;6.20;99.90
19868;DHT22;10096;51.112;6.776;2023-03-01T08:45:05;5.80;99.90
19868;DHT22;10096;51.112;6.776;2023-03-01T08:47:32;5.70;99.90
19868;DHT22;10096;51.112;6.776;2023-03-01T08:49:59;5.40;99.90
19868;DHT22;10096;51.112;6.776;2023-03-01T08:52:27;5.20;99.90
19868;DHT22;10096;51.112;6.776;2023-03-01T08:54:55;5.20;99.90
19868;DHT22;10096;51.112;6.776;2023-03-01T08:57:22;5.20;99.90
19868;DHT22;10096;51.112;6.776;2023-03-01T08:59:50;5.20;99.90
19868;DHT22;10096;51.112;6.776;2023-03-01T09:02:21;5.00;99.90
19868;DHT22;10096;51.112;6.776;2023-03-01T09:04:48;5.00;99.90
19868;DHT22;10096;51.112;6.776;2023-03-01T09:07:15;5.00;99.90
19868;DHT22;10096;51.112;6.776;2023-03-01T09:09:44;4.80;99.90
19868;DHT22;10096;51.112;6.776;2023-03-01T09:12:11;5.10;99.90
19868;DHT22;10096;51.112;6.776;2023-03-01T09:14:38;5.00;99.90
19868;DHT22;10096;51.112;6.776;2023-03-01T09:17:06;4.90;99.90
19868;DHT22;10096;51.112;6.776;2023-03-01T09:19:33;4.80;99.90
19868;DHT22;10096;51.112;6.776;2023-03-01T09:22:00;4.70;99.90
19868;DHT22;10096;51.112;6.776;2023-03-01T09:24:27;4.70;99.90
19868;DHT22;10096;51.112;6.776;2023-03-01T09:26:56;4.80;99.90
19868;DHT22;10096;51.112;6.776;2023-03-01T09:29:23;4.90;99.90
19868;DHT22;10096;51.112;6.776;2023-03-01T09:31:51;5.00;99.90
19868;DHT22;10096;51.112;6.776;2023-03-01T09:34:20;5.10;99.90
19868;DHT22;10096;51.112;6.776;2023-03-01T09:36:49;5.10;99.90
19868;DHT22;10096;51.112;6.776;2023-03-01T09:39:16;5.10;99.90
19868;DHT22;10096;51.112;6.776;2023-03-01T09:41:47;5.10;99.90
19868;DHT22;10096;51.112;6.776;2023-03-01T09:44:29;5.10;99.90
19868;DHT22;10096;51.112;6.776;2023-03-01T09:46:58;5.10;99.90
19868;DHT22;10096;51.112;6.776;2023-03-01T09:49:28;5.20;99.90
19868;DHT22;10096;51.112;6.776;2023-03-01T09:51:59;5.20;99.90
19868;DHT22;10096;51.112;6.776;2023-03-01T09:54:26;5.20;99.90
19868;DHT22;10096;51.112;6.776;2023-03-01T09:57:05;5.40;99.90
19868;DHT22;10096;51.112;6.776;2023-03-01T09:59:45;5.40;99.90
19868;DHT22;10096;51.112;6.776;2023-03-01T10:02:24;5.50;99.90
19868;DHT22;10096;51.112;6.776;2023-03-01T10:04:55;5.50;99.90
19868;DHT22;10096;51.112;6.776;2023-03-01T10:07:32;5.60;99.90
19868;DHT22;10096;51.112;6.776;2023-03-01T10:10:00;5.60;99.90
19868;DHT22;10096;51.112;6.776;2023-03-01T10:12:34;5.60;99.90
19868;DHT22;10096;51.112;6.776;2023-03-01T10:15:06;5.70;99.90
19868;DHT22;10096;51.112;6.776;2023-03-01T10:17:38;5.80;99.90
19868;DHT22;10096;51.112;6.776;2023-03-01T10:20:20;5.80;99.90
19868;DHT22;10096;51.112;6.776;2023-03-01T10:22:48;6.00;99.90
19868;DHT22;10096;51.112;6.776;2023-03-01T10:25:25;5.70;99.90
19868;DHT22;10096;51.112;6.776;2023-03-01T10:28:02;5.80;99.90
19868;DHT22;10096;51.112;6.776;2023-03-01T10:30:35;5.80;99.90
19868;DHT22;10096;51.112;6.776;2023-03-01T10:33:08;5.70;99.90
19868;DHT22;10096;51.112;6.776;2023-03-01T10:35:40;5.70;99.90
19868;DHT22;10096;51.112;6.776;2023-03-01T10:38:09;5.70;99.90
19868;DHT22;10096;51.112;6.776;2023-03-01T10:40:50;5.80;99.90
19868;DHT22;10096;51.112;6.776;2023-03-01T10:43:17;5.90;99.90
19868;DHT22;10096;51.112;6.776;2023-03-01T10:45:48;6.00;99.90
19868;DHT22;10096;51.112;6.776;2023-03-01T10:48:17;6.10;99.90
19868;DHT22;10096;51.112;6.776;2023-03-01T10:51:50;6.30;99.90
19868;DHT22;10096;51.112;6.776;2023-03-01T10:54:20;6.30;99.90
19868;DHT22;10096;51.112;6.776;2023-03-01T10:56:50;6.30;99.90
19868;DHT22;10096;51.112;6.776;2023-03-01T10:59:28;6.40;99.90
19868;DHT22;10096;51.112;6.776;2023-03-01T11:02:09;6.30;99.90
19868;DHT22;10096;51.112;6.776;2023-03-01T11:04:40;6.40;99.90
19868;DHT22;10096;51.112;6.776;2023-03-01T11:07:22;6.10;99.90
19868;DHT22;10096;51.112;6.776;2023-03-01T11:09:51;6.00;99.90
19868;DHT22;10096;51.112;6.776;2023-03-01T11:12:21;6.00;99.90
19868;DHT22;10096;51.112;6.776;2023-03-01T11:14:50;6.10;99.90
19868;DHT22;10096;51.112;6.776;2023-03-01T11:17:21;6.20;99.90
19868;DHT22;10096;51.112;6.776;2023-03-01T11:20:00;6.20;99.90
19868;DHT22;10096;51.112;6.776;2023-03-01T11:22:29;6.20;99.90
19868;DHT22;10096;51.112;6.776;2023-03-01T11:25:00;6.20;99.90
19868;DHT22;10096;51.112;6.776;2023-03-01T11:27:30;6.20;99.90
19868;DHT22;10096;51.112;6.776;2023-03-01T11:30:00;6.30;99.90
19868;DHT22;10096;51.112;6.776;2023-03-01T11:32:33;6.30;99.90
19868;DHT22;10096;51.112;6.776;2023-03-01T11:35:09;6.30;99.90
19868;DHT22;10096;51.112;6.776;2023-03-01T11:37:41;6.40;99.90
19868;DHT22;10096;51.112;6.776;2023-03-01T11:40:16;6.40;99.90
19868;DHT22;10096;51.112;6.776;2023-03-01T11:42:52;6.50;99.90
19868;DHT22;10096;51.112;6.776;2023-03-01T11:45:22;6.50;99.90
19868;DHT22;10096;51.112;6.776;2023-03-01T11:48:03;6.50;99.90
19868;DHT22;10096;51.112;6.776;2023-03-01T11:50:39;6.70;99.90
19868;DHT22;10096;51.112;6.776;2023-03-01T11:53:31;6.80;99.90
19868;DHT22;10096;51.112;6.776;2023-03-01T11:56:21;6.90;99.90
19868;DHT22;10096;51.112;6.776;2023-03-01T11:59:17;6.90;99.90
19868;DHT22;10096;51.112;6.776;2023-03-01T12:02:01;7.00;99.90
19868;DHT22;10096;51.112;6.776;2023-03-01T12:04:52;6.90;99.90
19868;DHT22;10096;51.112;6.776;2023-03-01T12:07:25;6.90;99.90
19868;DHT22;10096;51.112;6.776;2023-03-01T12:10:16;7.00;99.90
19868;DHT22;10096;51.112;6.776;2023-03-01T12:12:58;7.10;99.90
19868;DHT22;10096;51.112;6.776;2023-03-01T12:15:42;7.10;99.90
19868;DHT22;10096;51.112;6.776;2023-03-01T12:18:21;7.10;99.90
19868;DHT22;10096;51.112;6.776;2023-03-01T12:20:58;7.20;99.90
19868;DHT22;10096;51.112;6.776;2023-03-01T12:24:10;7.20;99.90
19868;DHT22;10096;51.112;6.776;2023-03-01T12:26:50;7.10;99.90
19868;DHT22;10096;51.112;6.776;2023-03-01T12:29:26;7.10;99.90
19868;DHT22;10096;51.112;6.776;2023-03-01T12:32:15;7.10;99.90
19868;DHT22;10096;51.112;6.776;2023-03-01T12:35:02;7.10;99.90
19868;DHT22;10096;51.112;6.776;2023-03-01T12:38:19;7.20;99.90
19868;DHT22;10096;51.112;6.776;2023-03-01T12:40:55;7.20;99.90
19868;DHT22;10096;51.112;6.776;2023-03-01T12:43:52;7.10;99.90
19868;DHT22;10096;51.112;6.776;2023-03-01T12:46:52;7.40;99.90
19868;DHT22;10096;51.112;6.776;2023-03-01T12:49:26;7.30;99.90
19868;DHT22;10096;51.112;6.776;2023-03-01T12:51:58;7.20;99.90
19868;DHT22;10096;51.112;6.776;2023-03-01T12:54:29;7.20;99.90
19868;DHT22;10096;51.112;6.776;2023-03-01T12:57:00;7.30;99.90
19868;DHT22;10096;51.112;6.776;2023-03-01T12:59:34;7.20;99.90
19868;DHT22;10096;51.112;6.776;2023-03-01T13:02:13;7.30;99.90
19868;DHT22;10096;51.112;6.776;2023-03-01T13:05:00;7.20;99.90
19868;DHT22;10096;51.112;6.776;2023-03-01T13:07:34;7.20;99.90
19868;DHT22;10096;51.112;6.776;2023-03-01T13:10:20;7.30;99.90
19868;DHT22;10096;51.112;6.776;2023-03-01T13:13:01;7.30;99.90
19868;DHT22;10096;51.112;6.776;2023-03-01T13:15:31;7.30;99.90
19868;DHT22;10096;51.112;6.776;2023-03-01T13:18:01;7.30;99.90
19868;DHT22;10096;51.112;6.776;2023-03-01T13:20:34;7.30;99.90
19868;DHT22;10096;51.112;6.776;2023-03-01T13:23:04;7.40;99.90
19868;DHT22;10096;51.112;6.776;2023-03-01T13:25:32;7.30;99.90
19868;DHT22;10096;51.112;6.776;2023-03-01T13:31:07;7.50;99.90
19868;DHT22;10096;51.112;6.776;2023-03-01T13:33:42;7.60;99.90
19868;DHT22;10096;51.112;6.776;2023-03-01T13:36:59;7.40;99.90
19868;DHT22;10096;51.112;6.776;2023-03-01T13:39:40;7.50;99.90
19868;DHT22;10096;51.112;6.776;2023-03-01T13:45:21;7.70;99.90
19868;DHT22;10096;51.112;6.776;2023-03-01T13:47:54;7.60;99.90
19868;DHT22;10096;51.112;6.776;2023-03-01T13:50:25;7.60;99.90
19868;DHT22;10096;51.112;6.776;2023-03-01T13:52:58;7.60;99.90
19868;DHT22;10096;51.112;6.776;2023-03-01T13:55:35;7.60;99.90
19868;DHT22;10096;51.112;6.776;2023-03-01T13:58:15;7.60;99.90
19868;DHT22;10096;51.112;6.776;2023-03-01T14:00:43;7.50;99.90
19868;DHT22;10096;51.112;6.776;2023-03-01T14:03:14;7.50;99.90
19868;DHT22;10096;51.112;6.776;2023-03-01T14:05:57;7.40;99.90
19868;DHT22;10096;51.112;6.776;2023-03-01T14:08:34;7.20;99.90
19868;DHT22;10096;51.112;6.776;2023-03-01T14:11:33;7.40;99.90
19868;DHT22;10096;51.112;6.776;2023-03-01T14:14:23;7.40;99.90
19868;DHT22;10096;51.112;6.776;2023-03-01T14:16:59;7.40;99.90
19868;DHT22;10096;51.112;6.776;2023-03-01T14:19:29;7.70;99.90
19868;DHT22;10096;51.112;6.776;2023-03-01T14:22:02;7.50;99.90
19868;DHT22;10096;51.112;6.776;2023-03-01T14:24:48;7.50;99.90
19868;DHT22;10096;51.112;6.776;2023-03-01T14:27:16;7.70;99.90
19868;DHT22;10096;51.112;6.776;2023-03-01T14:29:44;7.70;99.90
19868;DHT22;10096;51.112;6.776;2023-03-01T14:32:19;7.60;99.90
19868;DHT22;10096;51.112;6.776;2023-03-01T14:34:48;7.40;99.90
19868;DHT22;10096;51.112;6.776;2023-03-01T14:37:22;7.50;99.90
19868;DHT22;10096;51.112;6.776;2023-03-01T14:39:51;7.60;99.90
19868;DHT22;10096;51.112;6.776;2023-03-01T14:42:19;7.60;99.90
19868;DHT22;10096;51.112;6.776;2023-03-01T14:44:49;7.60;99.90
19868;DHT22;10096;51.112;6.776;2023-03-01T14:47:26;7.60;99.90
19868;DHT22;10096;51.112;6.776;2023-03-01T14:49:57;7.50;99.90
19868;DHT22;10096;51.112;6.776;2023-03-01T14:52:30;7.50;99.90
19868;DHT22;10096;51.112;6.776;2023-03-01T14:55:04;7.40;99.90
19868;DHT22;10096;51.112;6.776;2023-03-01T14:57:31;7.40;99.90
19868;DHT22;10096;51.112;6.776;2023-03-01T15:00:00;7.50;99.90
19868;DHT22;10096;51.112;6.776;2023-03-01T15:02:30;7.50;99.90
19868;DHT22;10096;51.112;6.776;2023-03-01T15:04:59;7.50;99.90
19868;DHT22;10096;51.112;6.776;2023-03-01T15:07:30;7.40;99.90
19868;DHT22;10096;51.112;6.776;2023-03-01T15:09:58;7.40;99.90
19868;DHT22;10096;51.112;6.776;2023-03-01T15:12:37;7.40;99.90
19868;DHT22;10096;51.112;6.776;2023-03-01T15:15:26;7.40;99.90
19868;DHT22;10096;51.112;6.776;2023-03-01T15:17:59;7.40;99.90
19868;DHT22;10096;51.112;6.776;2023-03-01T15:20:28;7.40;99.90
19868;DHT22;10096;51.112;6.776;2023-03-01T15:22:57;7.40;99.90
19868;DHT22;10096;51.112;6.776;2023-03-01T15:25:28;7.40;99.90
19868;DHT22;10096;51.112;6.776;2023-03-01T15:27:58;7.40;99.90
19868;DHT22;10096;51.112;6.776;2023-03-01T15:30:27;7.40;99.90
19868;DHT22;10096;51.112;6.776;2023-03-01T15:33:26;7.40;99.90
19868;DHT22;10096;51.112;6.776;2023-03-01T15:35:55;7.60;99.90
19868;DHT22;10096;51.112;6.776;2023-03-01T15:38:33;7.30;99.90
19868;DHT22;10096;51.112;6.776;2023-03-01T15:41:05;7.30;99.90
19868;DHT22;10096;51.112;6.776;2023-03-01T15:43:49;7.30;99.90
19868;DHT22;10096;51.112;6.776;2023-03-01T15:46:18;7.20;99.90
19868;DHT22;10096;51.112;6.776;2023-03-01T15:48:48;7.20;99.90
19868;DHT22;10096;51.112;6.776;2023-03-01T15:51:22;7.20;99.90
19868;DHT22;10096;51.112;6.776;2023-03-01T15:53:51;7.30;99.90
19868;DHT22;10096;51.112;6.776;2023-03-01T15:56:19;7.10;99.90
19868;DHT22;10096;51.112;6.776;2023-03-01T15:58:46;7.10;99.90
19868;DHT22;10096;51.112;6.776;2023-03-01T16:01:15;7.30;99.90
19868;DHT22;10096;51.112;6.776;2023-03-01T16:03:44;7.10;99.90
19868;DHT22;10096;51.112;6.776;2023-03-01T16:06:11;7.10;99.90
19868;DHT22;10096;51.112;6.776;2023-03-01T16:08:39;7.10;99.90
19868;DHT22;10096;51.112;6.776;2023-03-01T16:11:13;7.10;99.90
19868;DHT22;10096;51.112;6.776;2023-03-01T16:13:40;7.00;99.90
19868;DHT22;10096;51.112;6.776;2023-03-01T16:16:09;7.00;99.90
19868;DHT22;10096;51.112;6.776;2023-03-01T16:18:39;7.00;99.90
19868;DHT22;10096;51.112;6.776;2023-03-01T16:21:06;7.00;99.90
19868;DHT22;10096;51.112;6.776;2023-03-01T16:23:36;7.10;99.90
19868;DHT22;10096;51.112;6.776;2023-03-01T16:26:04;7.00;99.90